sensor_id;sensor_type;location;lat;lon;timestamp;P1;durP1;ratioP1;P2;durP2;ratioP2
8568;SDS011;4322;51.104;-4.162;2023-04-15T00:02:12;3.87;;;3.77;;
8568;SDS011;4322;51.104;-4.162;2023-04-15T00:04:41;3.90;;;3.80;;
8568;SDS011;4322;51.104;-4.162;2023-04-15T00:07:10;4.13;;;3.93;;
8568;SDS011;4322;51.104;-4.162;2023-04-15T00:09:37;3.77;;;3.67;;
8568;SDS011;4322;51.104;-4.162;2023-04-15T00:12:06;4.20;;;4.00;;
8568;SDS011;4322;51.104;-4.162;2023-04-15T00:14:34;3.63;;;3.53;;
8568;SDS011;4322;51.104;-4.162;2023-04-15T00:17:02;3.83;;;3.73;;
8568;SDS011;4322;51.104;-4.162;2023-04-15T00:19:30;3.90;;;3.80;;
8568;SDS011;4322;51.104;-4.162;2023-04-15T00:22:00;3.90;;;3.80;;
8568;SDS011;4322;51.104;-4.162;2023-04-15T00:24:27;3.63;;;3.53;;
8568;SDS011;4322;51.104;-4.162;2023-04-15T00:26:56;3.93;;;3.80;;
8568;SDS011;4322;51.104;-4.162;2023-04-15T00:29:27;2.90;;;2.80;;
8568;SDS011;4322;51.104;-4.162;2023-04-15T00:31:55;3.47;;;3.37;;
8568;SDS011;4322;51.104;-4.162;2023-04-15T00:34:23;3.80;;;3.70;;
8568;SDS011;4322;51.104;-4.162;2023-04-15T00:36:51;3.70;;;3.60;;
8568;SDS011;4322;51.104;-4.162;2023-04-15T00:39:21;3.50;;;3.40;;
8568;SDS011;4322;51.104;-4.162;2023-04-15T00:41:48;3.57;;;3.47;;
8568;SDS011;4322;51.104;-4.162;2023-04-15T00:44:16;3.50;;;3.40;;
8568;SDS011;4322;51.104;-4.162;2023-04-15T00:46:45;3.40;;;3.30;;
8568;SDS011;4322;51.104;-4.162;2023-04-15T00:49:13;3.37;;;3.27;;
8568;SDS011;4322;51.104;-4.162;2023-04-15T00:51:41;3.60;;;3.50;;
8568;SDS011;4322;51.104;-4.162;2023-04-15T00:54:09;3.50;;;3.40;;
8568;SDS011;4322;51.104;-4.162;2023-04-15T00:56:39;3.50;;;3.40;;
8568;SDS011;4322;51.104;-4.162;2023-04-15T00:59:07;3.73;;;3.63;;
8568;SDS011;4322;51.104;-4.162;2023-04-15T01:01:35;3.50;;;3.40;;
8568;SDS011;4322;51.104;-4.162;2023-04-15T01:04:03;3.50;;;3.40;;
8568;SDS011;4322;51.104;-4.162;2023-04-15T01:06:32;3.87;;;3.77;;
8568;SDS011;4322;51.104;-4.162;2023-04-15T01:09:00;3.73;;;3.63;;
8568;SDS011;4322;51.104;-4.162;2023-04-15T01:11:29;4.27;;;4.07;;
8568;SDS011;4322;51.104;-4.162;2023-04-15T01:13:58;3.73;;;3.63;;
8568;SDS011;4322;51.104;-4.162;2023-04-15T01:16:26;4.07;;;3.87;;
8568;SDS011;4322;51.104;-4.162;2023-04-15T01:18:55;4.47;;;4.27;;
8568;SDS011;4322;51.104;-4.162;2023-04-15T01:21:23;4.60;;;4.40;;
8568;SDS011;4322;51.104;-4.162;2023-04-15T01:23:52;4.70;;;4.50;;
8568;SDS011;4322;51.104;-4.162;2023-04-15T01:26:21;4.50;;;4.30;;
8568;SDS011;4322;51.104;-4.162;2023-04-15T01:28:49;4.27;;;4.07;;
8568;SDS011;4322;51.104;-4.162;2023-04-15T01:31:17;4.17;;;3.97;;
8568;SDS011;4322;51.104;-4.162;2023-04-15T01:33:44;4.10;;;3.90;;
8568;SDS011;4322;51.104;-4.162;2023-04-15T01:36:16;4.40;;;4.20;;
8568;SDS011;4322;51.104;-4.162;2023-04-15T01:38:44;4.30;;;4.10;;
8568;SDS011;4322;51.104;-4.162;2023-04-15T01:41:13;4.33;;;4.13;;
8568;SDS011;4322;51.104;-4.162;2023-04-15T01:43:42;4.30;;;4.10;;
8568;SDS011;4322;51.104;-4.162;2023-04-15T01:46:10;4.50;;;4.30;;
8568;SDS011;4322;51.104;-4.162;2023-04-15T01:48:38;4.40;;;4.20;;
8568;SDS011;4322;51.104;-4.162;2023-04-15T01:51:06;4.37;;;4.17;;
8568;SDS011;4322;51.104;-4.162;2023-04-15T01:53:33;4.00;;;3.83;;
8568;SDS011;4322;51.104;-4.162;2023-04-15T01:56:01;4.33;;;4.13;;
8568;SDS011;4322;51.104;-4.162;2023-04-15T01:58:29;4.33;;;4.13;;
8568;SDS011;4322;51.104;-4.162;2023-04-15T02:00:58;4.70;;;4.50;;
8568;SDS011;4322;51.104;-4.162;2023-04-15T02:03:29;4.80;;;4.60;;
8568;SDS011;4322;51.104;-4.162;2023-04-15T02:05:57;4.70;;;4.50;;
8568;SDS011;4322;51.104;-4.162;2023-04-15T02:08:25;4.60;;;4.40;;
8568;SDS011;4322;51.104;-4.162;2023-04-15T02:10:55;4.57;;;4.37;;
8568;SDS011;4322;51.104;-4.162;2023-04-15T02:13:22;4.50;;;4.30;;
8568;SDS011;4322;51.104;-4.162;2023-04-15T02:15:50;4.53;;;4.33;;
8568;SDS011;4322;51.104;-4.162;2023-04-15T02:18:20;4.90;;;4.70;;
8568;SDS011;4322;51.104;-4.162;2023-04-15T02:20:49;4.90;;;4.70;;
8568;SDS011;4322;51.104;-4.162;2023-04-15T02:23:17;4.77;;;4.57;;
8568;SDS011;4322;51.104;-4.162;2023-04-15T02:25:45;5.10;;;4.90;;
8568;SDS011;4322;51.104;-4.162;2023-04-15T02:28:19;5.13;;;4.93;;
8568;SDS011;4322;51.104;-4.162;2023-04-15T02:30:47;5.00;;;4.80;;
8568;SDS011;4322;51.104;-4.162;2023-04-15T02:33:16;5.43;;;5.23;;
8568;SDS011;4322;51.104;-4.162;2023-04-15T02:35:45;4.33;;;4.13;;
8568;SDS011;4322;51.104;-4.162;2023-04-15T02:38:13;5.30;;;5.10;;
8568;SDS011;4322;51.104;-4.162;2023-04-15T02:40:43;4.97;;;4.77;;
8568;SDS011;4322;51.104;-4.162;2023-04-15T02:43:11;4.73;;;4.53;;
8568;SDS011;4322;51.104;-4.162;2023-04-15T02:45:39;4.77;;;4.57;;
8568;SDS011;4322;51.104;-4.162;2023-04-15T02:48:08;4.77;;;4.57;;
8568;SDS011;4322;51.104;-4.162;2023-04-15T02:50:36;4.70;;;4.50;;
8568;SDS011;4322;51.104;-4.162;2023-04-15T02:53:07;4.50;;;4.30;;
8568;SDS011;4322;51.104;-4.162;2023-04-15T02:55:35;4.37;;;4.17;;
8568;SDS011;4322;51.104;-4.162;2023-04-15T02:58:03;4.20;;;4.00;;
8568;SDS011;4322;51.104;-4.162;2023-04-15T03:00:30;3.90;;;3.80;;
8568;SDS011;4322;51.104;-4.162;2023-04-15T03:03:00;4.23;;;4.03;;
8568;SDS011;4322;51.104;-4.162;2023-04-15T03:05:28;4.20;;;4.00;;
8568;SDS011;4322;51.104;-4.162;2023-04-15T03:07:56;4.20;;;4.00;;
8568;SDS011;4322;51.104;-4.162;2023-04-15T03:10:27;4.30;;;4.10;;
8568;SDS011;4322;51.104;-4.162;2023-04-15T03:12:55;4.40;;;4.20;;
8568;SDS011;4322;51.104;-4.162;2023-04-15T03:15:22;4.30;;;4.10;;
8568;SDS011;4322;51.104;-4.162;2023-04-15T03:17:50;4.10;;;3.90;;
8568;SDS011;4322;51.104;-4.162;2023-04-15T03:20:18;3.80;;;3.70;;
8568;SDS011;4322;51.104;-4.162;2023-04-15T03:22:46;3.70;;;3.60;;
8568;SDS011;4322;51.104;-4.162;2023-04-15T03:25:14;3.80;;;3.70;;
8568;SDS011;4322;51.104;-4.162;2023-04-15T03:27:43;3.50;;;3.40;;
8568;SDS011;4322;51.104;-4.162;2023-04-15T03:30:11;3.73;;;3.63;;
8568;SDS011;4322;51.104;-4.162;2023-04-15T03:32:42;3.87;;;3.77;;
8568;SDS011;4322;51.104;-4.162;2023-04-15T03:35:18;3.80;;;3.70;;
8568;SDS011;4322;51.104;-4.162;2023-04-15T03:37:46;3.97;;;3.80;;
8568;SDS011;4322;51.104;-4.162;2023-04-15T03:40:14;3.70;;;3.60;;
8568;SDS011;4322;51.104;-4.162;2023-04-15T03:42:43;4.10;;;3.90;;
8568;SDS011;4322;51.104;-4.162;2023-04-15T03:45:11;3.63;;;3.53;;
8568;SDS011;4322;51.104;-4.162;2023-04-15T03:47:39;4.03;;;3.87;;
8568;SDS011;4322;51.104;-4.162;2023-04-15T03:50:07;3.70;;;3.60;;
8568;SDS011;4322;51.104;-4.162;2023-04-15T03:52:35;4.17;;;3.97;;
8568;SDS011;4322;51.104;-4.162;2023-04-15T03:55:03;3.97;;;3.80;;
8568;SDS011;4322;51.104;-4.162;2023-04-15T03:57:30;3.90;;;3.80;;
8568;SDS011;4322;51.104;-4.162;2023-04-15T04:00:05;3.90;;;3.80;;
8568;SDS011;4322;51.104;-4.162;2023-04-15T04:02:33;3.97;;;3.83;;
8568;SDS011;4322;51.104;-4.162;2023-04-15T04:05:01;3.70;;;3.60;;
8568;SDS011;4322;51.104;-4.162;2023-04-15T04:07:29;4.10;;;3.90;;
8568;SDS011;4322;51.104;-4.162;2023-04-15T04:09:57;3.90;;;3.80;;
8568;SDS011;4322;51.104;-4.162;2023-04-15T04:12:25;4.10;;;3.90;;
8568;SDS011;4322;51.104;-4.162;2023-04-15T04:14:53;4.10;;;3.90;;
8568;SDS011;4322;51.104;-4.162;2023-04-15T04:17:22;4.10;;;3.90;;
8568;SDS011;4322;51.104;-4.162;2023-04-15T04:19:50;4.20;;;4.00;;
8568;SDS011;4322;51.104;-4.162;2023-04-15T04:22:20;3.83;;;3.73;;
8568;SDS011;4322;51.104;-4.162;2023-04-15T04:24:48;4.17;;;3.97;;
8568;SDS011;4322;51.104;-4.162;2023-04-15T04:27:16;4.30;;;4.10;;
8568;SDS011;4322;51.104;-4.162;2023-04-15T04:29:44;4.10;;;3.90;;
8568;SDS011;4322;51.104;-4.162;2023-04-15T04:32:13;4.10;;;3.90;;
8568;SDS011;4322;51.104;-4.162;2023-04-15T04:34:42;4.00;;;3.83;;
8568;SDS011;4322;51.104;-4.162;2023-04-15T04:37:10;4.60;;;4.40;;
8568;SDS011;4322;51.104;-4.162;2023-04-15T04:39:38;4.63;;;4.43;;
8568;SDS011;4322;51.104;-4.162;2023-04-15T04:42:06;4.10;;;3.90;;
8568;SDS011;4322;51.104;-4.162;2023-04-15T04:44:34;4.40;;;4.20;;
8568;SDS011;4322;51.104;-4.162;2023-04-15T04:47:02;4.03;;;3.83;;
8568;SDS011;4322;51.104;-4.162;2023-04-15T04:49:50;4.30;;;4.10;;
8568;SDS011;4322;51.104;-4.162;2023-04-15T04:52:18;4.20;;;4.00;;
8568;SDS011;4322;51.104;-4.162;2023-04-15T04:54:46;4.30;;;4.10;;
8568;SDS011;4322;51.104;-4.162;2023-04-15T04:57:14;4.40;;;4.20;;
8568;SDS011;4322;51.104;-4.162;2023-04-15T04:59:41;4.20;;;4.00;;
8568;SDS011;4322;51.104;-4.162;2023-04-15T05:02:09;4.37;;;4.17;;
8568;SDS011;4322;51.104;-4.162;2023-04-15T05:04:37;4.70;;;4.50;;
8568;SDS011;4322;51.104;-4.162;2023-04-15T05:07:06;4.33;;;4.13;;
8568;SDS011;4322;51.104;-4.162;2023-04-15T05:09:34;4.47;;;4.27;;
8568;SDS011;4322;51.104;-4.162;2023-04-15T05:12:02;4.37;;;4.17;;
8568;SDS011;4322;51.104;-4.162;2023-04-15T05:14:30;4.33;;;4.13;;
8568;SDS011;4322;51.104;-4.162;2023-04-15T05:16:58;4.37;;;4.17;;
8568;SDS011;4322;51.104;-4.162;2023-04-15T05:19:34;4.40;;;4.20;;
8568;SDS011;4322;51.104;-4.162;2023-04-15T05:22:02;4.17;;;3.97;;
8568;SDS011;4322;51.104;-4.162;2023-04-15T05:24:31;4.17;;;3.97;;
8568;SDS011;4322;51.104;-4.162;2023-04-15T05:26:59;3.80;;;3.70;;
8568;SDS011;4322;51.104;-4.162;2023-04-15T05:29:30;3.90;;;3.80;;
8568;SDS011;4322;51.104;-4.162;2023-04-15T05:32:03;3.87;;;3.77;;
8568;SDS011;4322;51.104;-4.162;2023-04-15T05:34:30;3.67;;;3.57;;
8568;SDS011;4322;51.104;-4.162;2023-04-15T05:37:01;3.73;;;3.63;;
8568;SDS011;4322;51.104;-4.162;2023-04-15T05:39:29;3.70;;;3.60;;
8568;SDS011;4322;51.104;-4.162;2023-04-15T05:42:01;4.10;;;3.90;;
8568;SDS011;4322;51.104;-4.162;2023-04-15T05:44:31;3.20;;;3.10;;
8568;SDS011;4322;51.104;-4.162;2023-04-15T05:46:59;3.80;;;3.70;;
8568;SDS011;4322;51.104;-4.162;2023-04-15T05:49:28;3.60;;;3.50;;
8568;SDS011;4322;51.104;-4.162;2023-04-15T05:51:56;3.63;;;3.53;;
8568;SDS011;4322;51.104;-4.162;2023-04-15T05:54:24;3.47;;;3.37;;
8568;SDS011;4322;51.104;-4.162;2023-04-15T05:56:53;3.60;;;3.50;;
8568;SDS011;4322;51.104;-4.162;2023-04-15T05:59:23;3.73;;;3.63;;
8568;SDS011;4322;51.104;-4.162;2023-04-15T06:01:51;3.80;;;3.70;;
8568;SDS011;4322;51.104;-4.162;2023-04-15T06:04:19;3.73;;;3.63;;
8568;SDS011;4322;51.104;-4.162;2023-04-15T06:06:47;4.00;;;3.83;;
8568;SDS011;4322;51.104;-4.162;2023-04-15T06:09:15;3.50;;;3.40;;
8568;SDS011;4322;51.104;-4.162;2023-04-15T06:11:42;3.33;;;3.23;;
8568;SDS011;4322;51.104;-4.162;2023-04-15T06:14:10;3.70;;;3.60;;
8568;SDS011;4322;51.104;-4.162;2023-04-15T06:16:39;3.10;;;3.00;;
8568;SDS011;4322;51.104;-4.162;2023-04-15T06:19:07;3.80;;;3.70;;
8568;SDS011;4322;51.104;-4.162;2023-04-15T06:21:36;3.73;;;3.63;;
8568;SDS011;4322;51.104;-4.162;2023-04-15T06:24:04;3.50;;;3.40;;
8568;SDS011;4322;51.104;-4.162;2023-04-15T06:26:32;3.47;;;3.37;;
8568;SDS011;4322;51.104;-4.162;2023-04-15T06:28:59;3.70;;;3.60;;
8568;SDS011;4322;51.104;-4.162;2023-04-15T06:31:28;3.70;;;3.60;;
8568;SDS011;4322;51.104;-4.162;2023-04-15T06:33:57;3.57;;;3.47;;
8568;SDS011;4322;51.104;-4.162;2023-04-15T06:36:26;3.60;;;3.50;;
8568;SDS011;4322;51.104;-4.162;2023-04-15T06:38:53;3.90;;;3.80;;
8568;SDS011;4322;51.104;-4.162;2023-04-15T06:41:22;3.53;;;3.43;;
8568;SDS011;4322;51.104;-4.162;2023-04-15T06:43:49;3.90;;;3.80;;
8568;SDS011;4322;51.104;-4.162;2023-04-15T06:46:17;3.80;;;3.70;;
8568;SDS011;4322;51.104;-4.162;2023-04-15T06:48:45;3.77;;;3.67;;
8568;SDS011;4322;51.104;-4.162;2023-04-15T06:51:15;3.40;;;3.30;;
8568;SDS011;4322;51.104;-4.162;2023-04-15T06:53:43;3.40;;;3.30;;
8568;SDS011;4322;51.104;-4.162;2023-04-15T06:56:10;4.20;;;4.00;;
8568;SDS011;4322;51.104;-4.162;2023-04-15T06:58:38;3.00;;;2.90;;
8568;SDS011;4322;51.104;-4.162;2023-04-15T07:01:06;2.90;;;2.80;;
8568;SDS011;4322;51.104;-4.162;2023-04-15T07:03:34;3.37;;;3.27;;
8568;SDS011;4322;51.104;-4.162;2023-04-15T07:06:02;3.77;;;3.67;;
8568;SDS011;4322;51.104;-4.162;2023-04-15T07:08:33;3.60;;;3.50;;
8568;SDS011;4322;51.104;-4.162;2023-04-15T07:11:01;3.43;;;3.33;;
8568;SDS011;4322;51.104;-4.162;2023-04-15T07:13:30;3.57;;;3.47;;
8568;SDS011;4322;51.104;-4.162;2023-04-15T07:15:58;3.50;;;3.40;;
8568;SDS011;4322;51.104;-4.162;2023-04-15T07:18:26;3.80;;;3.70;;
8568;SDS011;4322;51.104;-4.162;2023-04-15T07:20:54;3.40;;;3.30;;
8568;SDS011;4322;51.104;-4.162;2023-04-15T07:23:21;3.80;;;3.70;;
8568;SDS011;4322;51.104;-4.162;2023-04-15T07:25:50;3.40;;;3.30;;
8568;SDS011;4322;51.104;-4.162;2023-04-15T07:28:18;3.10;;;3.00;;
8568;SDS011;4322;51.104;-4.162;2023-04-15T07:30:47;3.10;;;3.00;;
8568;SDS011;4322;51.104;-4.162;2023-04-15T07:33:15;3.20;;;3.10;;
8568;SDS011;4322;51.104;-4.162;2023-04-15T07:35:43;3.50;;;3.40;;
8568;SDS011;4322;51.104;-4.162;2023-04-15T07:38:12;3.23;;;3.13;;
8568;SDS011;4322;51.104;-4.162;2023-04-15T07:40:39;2.77;;;2.67;;
8568;SDS011;4322;51.104;-4.162;2023-04-15T07:43:09;2.80;;;2.70;;
8568;SDS011;4322;51.104;-4.162;2023-04-15T07:45:38;3.03;;;2.93;;
8568;SDS011;4322;51.104;-4.162;2023-04-15T07:48:11;3.37;;;3.27;;
8568;SDS011;4322;51.104;-4.162;2023-04-15T07:50:50;3.60;;;3.50;;
8568;SDS011;4322;51.104;-4.162;2023-04-15T07:53:18;3.17;;;3.07;;
8568;SDS011;4322;51.104;-4.162;2023-04-15T07:55:45;3.00;;;2.90;;
8568;SDS011;4322;51.104;-4.162;2023-04-15T08:01:06;3.00;;;2.90;;
8568;SDS011;4322;51.104;-4.162;2023-04-15T08:03:34;3.23;;;3.13;;
8568;SDS011;4322;51.104;-4.162;2023-04-15T08:06:02;3.33;;;3.23;;
8568;SDS011;4322;51.104;-4.162;2023-04-15T08:08:30;3.47;;;3.37;;
8568;SDS011;4322;51.104;-4.162;2023-04-15T08:10:58;3.10;;;3.00;;
8568;SDS011;4322;51.104;-4.162;2023-04-15T08:13:26;3.40;;;3.30;;
8568;SDS011;4322;51.104;-4.162;2023-04-15T08:18:38;3.00;;;2.90;;
8568;SDS011;4322;51.104;-4.162;2023-04-15T08:21:06;3.00;;;2.90;;
8568;SDS011;4322;51.104;-4.162;2023-04-15T08:23:34;2.80;;;2.70;;
8568;SDS011;4322;51.104;-4.162;2023-04-15T08:26:03;2.80;;;2.70;;
8568;SDS011;4322;51.104;-4.162;2023-04-15T08:28:30;3.20;;;3.10;;
8568;SDS011;4322;51.104;-4.162;2023-04-15T08:30:58;3.10;;;3.00;;
8568;SDS011;4322;51.104;-4.162;2023-04-15T08:33:26;2.80;;;2.70;;
8568;SDS011;4322;51.104;-4.162;2023-04-15T08:36:02;3.20;;;3.10;;
8568;SDS011;4322;51.104;-4.162;2023-04-15T08:38:30;2.90;;;2.80;;
8568;SDS011;4322;51.104;-4.162;2023-04-15T08:40:58;2.80;;;2.70;;
8568;SDS011;4322;51.104;-4.162;2023-04-15T08:43:27;2.97;;;2.87;;
8568;SDS011;4322;51.104;-4.162;2023-04-15T08:45:55;3.30;;;3.20;;
8568;SDS011;4322;51.104;-4.162;2023-04-15T08:48:27;3.13;;;3.03;;
8568;SDS011;4322;51.104;-4.162;2023-04-15T08:50:55;2.90;;;2.80;;
8568;SDS011;4322;51.104;-4.162;2023-04-15T08:53:27;2.97;;;2.87;;
8568;SDS011;4322;51.104;-4.162;2023-04-15T08:55:56;2.90;;;2.80;;
8568;SDS011;4322;51.104;-4.162;2023-04-15T08:58:24;3.30;;;3.20;;
8568;SDS011;4322;51.104;-4.162;2023-04-15T09:00:52;3.13;;;3.03;;
8568;SDS011;4322;51.104;-4.162;2023-04-15T09:03:20;3.17;;;3.07;;
8568;SDS011;4322;51.104;-4.162;2023-04-15T09:05:53;3.00;;;2.90;;
8568;SDS011;4322;51.104;-4.162;2023-04-15T09:10:59;3.23;;;3.13;;
8568;SDS011;4322;51.104;-4.162;2023-04-15T09:13:27;3.23;;;3.13;;
8568;SDS011;4322;51.104;-4.162;2023-04-15T09:15:55;3.33;;;3.23;;
8568;SDS011;4322;51.104;-4.162;2023-04-15T09:18:27;3.50;;;3.40;;
8568;SDS011;4322;51.104;-4.162;2023-04-15T09:21:03;3.80;;;3.70;;
8568;SDS011;4322;51.104;-4.162;2023-04-15T09:23:35;3.67;;;3.57;;
8568;SDS011;4322;51.104;-4.162;2023-04-15T09:26:18;3.80;;;3.70;;
8568;SDS011;4322;51.104;-4.162;2023-04-15T09:31:41;3.50;;;3.40;;
8568;SDS011;4322;51.104;-4.162;2023-04-15T09:34:09;3.50;;;3.40;;
8568;SDS011;4322;51.104;-4.162;2023-04-15T09:36:50;3.93;;;3.80;;
8568;SDS011;4322;51.104;-4.162;2023-04-15T09:39:22;3.50;;;3.40;;
8568;SDS011;4322;51.104;-4.162;2023-04-15T09:42:04;3.90;;;3.80;;
8568;SDS011;4322;51.104;-4.162;2023-04-15T09:44:35;4.10;;;3.90;;
8568;SDS011;4322;51.104;-4.162;2023-04-15T09:47:26;4.23;;;4.03;;
8568;SDS011;4322;51.104;-4.162;2023-04-15T09:49:55;4.20;;;4.00;;
8568;SDS011;4322;51.104;-4.162;2023-04-15T09:52:23;4.10;;;3.90;;
8568;SDS011;4322;51.104;-4.162;2023-04-15T09:54:53;4.03;;;3.83;;
8568;SDS011;4322;51.104;-4.162;2023-04-15T09:57:23;3.70;;;3.60;;
8568;SDS011;4322;51.104;-4.162;2023-04-15T09:59:51;3.90;;;3.80;;
8568;SDS011;4322;51.104;-4.162;2023-04-15T10:02:19;3.63;;;3.53;;
8568;SDS011;4322;51.104;-4.162;2023-04-15T10:04:47;4.27;;;4.07;;
8568;SDS011;4322;51.104;-4.162;2023-04-15T10:07:16;4.10;;;3.90;;
8568;SDS011;4322;51.104;-4.162;2023-04-15T10:09:46;4.30;;;4.10;;
8568;SDS011;4322;51.104;-4.162;2023-04-15T10:12:14;4.30;;;4.10;;
8568;SDS011;4322;51.104;-4.162;2023-04-15T10:14:45;4.80;;;4.60;;
8568;SDS011;4322;51.104;-4.162;2023-04-15T10:17:32;4.20;;;4.00;;
8568;SDS011;4322;51.104;-4.162;2023-04-15T10:20:02;4.60;;;4.40;;
8568;SDS011;4322;51.104;-4.162;2023-04-15T10:22:31;4.23;;;4.03;;
8568;SDS011;4322;51.104;-4.162;2023-04-15T10:24:59;4.40;;;4.20;;
8568;SDS011;4322;51.104;-4.162;2023-04-15T10:27:27;4.80;;;4.60;;
8568;SDS011;4322;51.104;-4.162;2023-04-15T10:30:00;4.43;;;4.23;;
8568;SDS011;4322;51.104;-4.162;2023-04-15T10:32:29;4.60;;;4.40;;
8568;SDS011;4322;51.104;-4.162;2023-04-15T10:34:57;4.17;;;3.97;;
8568;SDS011;4322;51.104;-4.162;2023-04-15T10:37:32;4.43;;;4.23;;
8568;SDS011;4322;51.104;-4.162;2023-04-15T10:40:01;4.53;;;4.33;;
8568;SDS011;4322;51.104;-4.162;2023-04-15T10:42:48;4.40;;;4.20;;
8568;SDS011;4322;51.104;-4.162;2023-04-15T10:45:18;4.63;;;4.43;;
8568;SDS011;4322;51.104;-4.162;2023-04-15T10:47:46;4.40;;;4.20;;
8568;SDS011;4322;51.104;-4.162;2023-04-15T10:50:18;4.30;;;4.10;;
8568;SDS011;4322;51.104;-4.162;2023-04-15T10:52:49;4.20;;;4.00;;
8568;SDS011;4322;51.104;-4.162;2023-04-15T10:55:18;4.20;;;4.00;;
8568;SDS011;4322;51.104;-4.162;2023-04-15T10:57:50;4.53;;;4.33;;
8568;SDS011;4322;51.104;-4.162;2023-04-15T11:00:20;4.70;;;4.50;;
8568;SDS011;4322;51.104;-4.162;2023-04-15T11:02:52;4.40;;;4.20;;
8568;SDS011;4322;51.104;-4.162;2023-04-15T11:05:47;4.30;;;4.10;;
8568;SDS011;4322;51.104;-4.162;2023-04-15T11:08:16;3.70;;;3.60;;
8568;SDS011;4322;51.104;-4.162;2023-04-15T11:10:53;3.57;;;3.47;;
8568;SDS011;4322;51.104;-4.162;2023-04-15T11:13:22;3.50;;;3.40;;
8568;SDS011;4322;51.104;-4.162;2023-04-15T11:15:53;3.87;;;3.77;;
8568;SDS011;4322;51.104;-4.162;2023-04-15T11:18:22;3.20;;;3.10;;
8568;SDS011;4322;51.104;-4.162;2023-04-15T11:20:51;3.40;;;3.30;;
8568;SDS011;4322;51.104;-4.162;2023-04-15T11:23:26;3.17;;;3.07;;
8568;SDS011;4322;51.104;-4.162;2023-04-15T11:25:54;2.70;;;2.60;;
8568;SDS011;4322;51.104;-4.162;2023-04-15T11:28:24;2.60;;;2.50;;
8568;SDS011;4322;51.104;-4.162;2023-04-15T11:30:53;2.40;;;2.30;;
8568;SDS011;4322;51.104;-4.162;2023-04-15T11:33:21;2.30;;;2.20;;
8568;SDS011;4322;51.104;-4.162;2023-04-15T11:35:51;2.40;;;2.30;;
8568;SDS011;4322;51.104;-4.162;2023-04-15T11:38:19;2.03;;;2.03;;
8568;SDS011;4322;51.104;-4.162;2023-04-15T11:40:48;2.00;;;2.00;;
8568;SDS011;4322;51.104;-4.162;2023-04-15T11:43:18;1.90;;;1.90;;
8568;SDS011;4322;51.104;-4.162;2023-04-15T11:45:47;1.93;;;1.93;;
8568;SDS011;4322;51.104;-4.162;2023-04-15T11:48:18;1.73;;;1.73;;
8568;SDS011;4322;51.104;-4.162;2023-04-15T11:50:51;1.90;;;1.90;;
8568;SDS011;4322;51.104;-4.162;2023-04-15T11:53:19;1.67;;;1.67;;
8568;SDS011;4322;51.104;-4.162;2023-04-15T11:55:47;1.80;;;1.80;;
8568;SDS011;4322;51.104;-4.162;2023-04-15T11:58:16;1.63;;;1.63;;
8568;SDS011;4322;51.104;-4.162;2023-04-15T12:00:45;2.00;;;2.00;;
8568;SDS011;4322;51.104;-4.162;2023-04-15T12:03:13;1.77;;;1.77;;
8568;SDS011;4322;51.104;-4.162;2023-04-15T12:08:50;1.60;;;1.60;;
8568;SDS011;4322;51.104;-4.162;2023-04-15T12:11:17;1.50;;;1.50;;
8568;SDS011;4322;51.104;-4.162;2023-04-15T12:13:46;1.53;;;1.53;;
8568;SDS011;4322;51.104;-4.162;2023-04-15T12:16:15;1.50;;;1.50;;
8568;SDS011;4322;51.104;-4.162;2023-04-15T12:18:44;1.60;;;1.60;;
8568;SDS011;4322;51.104;-4.162;2023-04-15T12:21:12;1.60;;;1.60;;
8568;SDS011;4322;51.104;-4.162;2023-04-15T12:23:46;1.40;;;1.40;;
8568;SDS011;4322;51.104;-4.162;2023-04-15T12:26:16;1.50;;;1.50;;
8568;SDS011;4322;51.104;-4.162;2023-04-15T12:28:44;1.47;;;1.47;;
8568;SDS011;4322;51.104;-4.162;2023-04-15T12:31:12;1.40;;;1.40;;
8568;SDS011;4322;51.104;-4.162;2023-04-15T12:33:41;1.60;;;1.60;;
8568;SDS011;4322;51.104;-4.162;2023-04-15T12:36:08;1.40;;;1.40;;
8568;SDS011;4322;51.104;-4.162;2023-04-15T12:38:36;1.40;;;1.40;;
8568;SDS011;4322;51.104;-4.162;2023-04-15T12:41:04;1.47;;;1.47;;
8568;SDS011;4322;51.104;-4.162;2023-04-15T12:43:33;1.50;;;1.50;;
8568;SDS011;4322;51.104;-4.162;2023-04-15T12:46:01;1.50;;;1.50;;
8568;SDS011;4322;51.104;-4.162;2023-04-15T12:48:30;1.40;;;1.40;;
8568;SDS011;4322;51.104;-4.162;2023-04-15T12:50:58;1.40;;;1.40;;
8568;SDS011;4322;51.104;-4.162;2023-04-15T12:53:26;1.30;;;1.30;;
8568;SDS011;4322;51.104;-4.162;2023-04-15T12:55:54;1.30;;;1.30;;
8568;SDS011;4322;51.104;-4.162;2023-04-15T12:58:22;1.40;;;1.40;;
8568;SDS011;4322;51.104;-4.162;2023-04-15T13:00:51;1.33;;;1.33;;
8568;SDS011;4322;51.104;-4.162;2023-04-15T13:03:19;1.50;;;1.50;;
8568;SDS011;4322;51.104;-4.162;2023-04-15T13:05:47;1.50;;;1.50;;
8568;SDS011;4322;51.104;-4.162;2023-04-15T13:08:15;1.50;;;1.50;;
8568;SDS011;4322;51.104;-4.162;2023-04-15T13:10:43;1.50;;;1.50;;
8568;SDS011;4322;51.104;-4.162;2023-04-15T13:13:10;1.60;;;1.60;;
8568;SDS011;4322;51.104;-4.162;2023-04-15T13:15:38;1.50;;;1.50;;
8568;SDS011;4322;51.104;-4.162;2023-04-15T13:18:07;1.47;;;1.47;;
8568;SDS011;4322;51.104;-4.162;2023-04-15T13:20:35;1.60;;;1.60;;
8568;SDS011;4322;51.104;-4.162;2023-04-15T13:23:03;1.60;;;1.60;;
8568;SDS011;4322;51.104;-4.162;2023-04-15T13:25:31;1.60;;;1.60;;
8568;SDS011;4322;51.104;-4.162;2023-04-15T13:27:59;1.60;;;1.60;;
8568;SDS011;4322;51.104;-4.162;2023-04-15T13:30:27;1.60;;;1.60;;
8568;SDS011;4322;51.104;-4.162;2023-04-15T13:32:55;1.60;;;1.60;;
8568;SDS011;4322;51.104;-4.162;2023-04-15T13:35:24;1.50;;;1.50;;
8568;SDS011;4322;51.104;-4.162;2023-04-15T13:37:52;1.50;;;1.50;;
8568;SDS011;4322;51.104;-4.162;2023-04-15T13:40:20;1.60;;;1.60;;
8568;SDS011;4322;51.104;-4.162;2023-04-15T13:42:48;1.50;;;1.50;;
8568;SDS011;4322;51.104;-4.162;2023-04-15T13:45:16;1.50;;;1.50;;
8568;SDS011;4322;51.104;-4.162;2023-04-15T13:47:44;1.40;;;1.40;;
8568;SDS011;4322;51.104;-4.162;2023-04-15T13:50:15;1.60;;;1.60;;
8568;SDS011;4322;51.104;-4.162;2023-04-15T13:52:44;1.50;;;1.50;;
8568;SDS011;4322;51.104;-4.162;2023-04-15T13:55:12;1.50;;;1.50;;
8568;SDS011;4322;51.104;-4.162;2023-04-15T13:57:48;1.60;;;1.60;;
8568;SDS011;4322;51.104;-4.162;2023-04-15T14:00:26;1.50;;;1.50;;
8568;SDS011;4322;51.104;-4.162;2023-04-15T14:02:53;1.30;;;1.30;;
8568;SDS011;4322;51.104;-4.162;2023-04-15T14:05:21;1.60;;;1.60;;
8568;SDS011;4322;51.104;-4.162;2023-04-15T14:07:51;1.70;;;1.70;;
8568;SDS011;4322;51.104;-4.162;2023-04-15T14:10:19;1.33;;;1.33;;
8568;SDS011;4322;51.104;-4.162;2023-04-15T14:12:51;1.57;;;1.57;;
8568;SDS011;4322;51.104;-4.162;2023-04-15T14:15:19;1.40;;;1.40;;
8568;SDS011;4322;51.104;-4.162;2023-04-15T14:17:52;1.53;;;1.53;;
8568;SDS011;4322;51.104;-4.162;2023-04-15T14:20:20;1.50;;;1.50;;
8568;SDS011;4322;51.104;-4.162;2023-04-15T14:22:48;1.40;;;1.40;;
8568;SDS011;4322;51.104;-4.162;2023-04-15T14:25:17;1.50;;;1.50;;
8568;SDS011;4322;51.104;-4.162;2023-04-15T14:27:59;1.40;;;1.40;;
8568;SDS011;4322;51.104;-4.162;2023-04-15T14:30:26;1.60;;;1.60;;
8568;SDS011;4322;51.104;-4.162;2023-04-15T14:32:54;1.50;;;1.50;;
8568;SDS011;4322;51.104;-4.162;2023-04-15T14:35:36;1.60;;;1.60;;
8568;SDS011;4322;51.104;-4.162;2023-04-15T14:38:04;1.60;;;1.60;;
8568;SDS011;4322;51.104;-4.162;2023-04-15T14:40:37;1.50;;;1.50;;
8568;SDS011;4322;51.104;-4.162;2023-04-15T14:43:08;1.60;;;1.60;;
8568;SDS011;4322;51.104;-4.162;2023-04-15T14:45:40;1.60;;;1.60;;
8568;SDS011;4322;51.104;-4.162;2023-04-15T14:48:10;1.50;;;1.50;;
8568;SDS011;4322;51.104;-4.162;2023-04-15T14:50:38;1.60;;;1.60;;
8568;SDS011;4322;51.104;-4.162;2023-04-15T14:53:06;1.60;;;1.60;;
8568;SDS011;4322;51.104;-4.162;2023-04-15T14:55:34;1.60;;;1.60;;
8568;SDS011;4322;51.104;-4.162;2023-04-15T14:58:03;1.70;;;1.70;;
8568;SDS011;4322;51.104;-4.162;2023-04-15T15:00:31;1.70;;;1.70;;
8568;SDS011;4322;51.104;-4.162;2023-04-15T15:03:03;1.60;;;1.60;;
8568;SDS011;4322;51.104;-4.162;2023-04-15T15:05:38;1.70;;;1.70;;
8568;SDS011;4322;51.104;-4.162;2023-04-15T15:08:08;1.50;;;1.50;;
8568;SDS011;4322;51.104;-4.162;2023-04-15T15:10:37;1.40;;;1.40;;
8568;SDS011;4322;51.104;-4.162;2023-04-15T15:13:16;1.50;;;1.50;;
8568;SDS011;4322;51.104;-4.162;2023-04-15T15:15:44;1.70;;;1.70;;
8568;SDS011;4322;51.104;-4.162;2023-04-15T15:18:24;1.57;;;1.57;;
8568;SDS011;4322;51.104;-4.162;2023-04-15T15:21:05;1.50;;;1.50;;
8568;SDS011;4322;51.104;-4.162;2023-04-15T15:23:33;1.60;;;1.60;;
8568;SDS011;4322;51.104;-4.162;2023-04-15T15:26:01;1.50;;;1.50;;
8568;SDS011;4322;51.104;-4.162;2023-04-15T15:28:30;1.60;;;1.60;;